Aérodrome :
LOGIN :

S'inscrire | Disclaimer

   EN    FR    IT 

 










Légende :    VFR   VFR Marginal   IFR   IFR Intensif   IFR Très Intensif
Visi : 
Plafond : 
>= 8 km
>= 3000ft
5 à 8 km
1000 à 3000 ft
1500m à 5 km
500 à 1000 ft
800 à 1500m
200 à 500 ft
< 800m
< 200 ft
Symboles :   Orages  Brouillard  Fortes neiges  Fortes précipitations  Vent > 20 kt
SIGMETs :   Divers  Orages  Givrage  Turbulence  Onde Orograph.  Cendres Volcan.






- Altitude de l'aérodrome : 961 ft
- Code IATA : VIN


UKWW - Gavryshivka

DERNIER METAR :
  • 151700Z 30002MPS 9999 NSC 21/11 Q1013 R31/0///65 NOSIG

METARs EXPIRÉS :
  • 151630Z 32004MPS 9999 NSC 21/10 Q1013 R31/0///65 NOSIG
  • 151600Z 32004MPS 9999 NSC 22/10 Q1014 R31/0///65 NOSIG
  • 151530Z 32004MPS 290V350 9999 NSC 22/10 Q1014 R31/0///65 NOSIG
  • 151500Z 31004MPS 270V340 9999 NSC 22/10 Q1014 R31/0///65 NOSIG

TAF TAF UKWW
Valide du 15 à 15h jusqu'au 16 à 00h UTC


151405Z 1515/1524 VRB01MPS 9999 SCT033
TEMPO 1515/1518 29004G09MPS



MET'MAP, la Météo Aéronautique d'un coup d'oeil ! - Copyright ORBIFLY Décembre 2007 - Disclaimer

ORBIFLY MET'MAP TEAM :

Programmation & Développement : Alexandra Zaïnal
Sur une idée originale de : Baudouin d'Aumeries
Assistance à la programmation : Marc-Olivier Méhu
Soutien technique & logistique : Manuel Goepfert

Contact : metmap@orbifly.com




SOURCES & CREDITS :

   NOAA